Time;durP1;ratioP1;P1;durP2;ratioP2;P2;SDS_P1;SDS_P2;PMS_P1;PMS_P2;Temp;Humidity;BMP_temperature;BMP_pressure;BME280_temperature;BME280_humidity;BME280_pressure;Samples;Min_cycle;Max_cycle;Signal;HPM_P1;HPM_P2
2022/06/25 00:00:57;;;;;;;12.38;3.05;;;15.10;82.10;;;;;;5100658;28;20024;-53
2022/06/25 00:03:22;;;;;;;12.65;3.05;;;15.10;83.00;;;;;;5100425;28;20008;-51
2022/06/25 00:05:50;;;;;;;11.98;3.45;;;15.10;83.20;;;;;;5100555;28;20047;-52
2022/06/25 00:08:15;;;;;;;10.60;2.92;;;15.10;81.70;;;;;;5100116;28;20537;-56
2022/06/25 00:10:42;;;;;;;13.57;3.83;;;15.10;81.90;;;;;;5100233;28;20077;-53
2022/06/25 00:13:08;;;;;;;8.93;2.47;;;15.10;81.50;;;;;;5100449;28;20034;-55
2022/06/25 00:15:33;;;;;;;8.77;2.50;;;15.10;80.10;;;;;;5100168;28;20036;-55
2022/06/25 00:17:59;;;;;;;7.90;2.80;;;15.00;79.40;;;;;;5100371;28;20031;-54
2022/06/25 00:20:25;;;;;;;9.82;3.05;;;15.00;80.70;;;;;;5100354;28;20028;-55
2022/06/25 00:22:51;;;;;;;7.28;2.65;;;15.00;80.30;;;;;;5100214;28;20020;-54
2022/06/25 00:25:17;;;;;;;11.63;2.55;;;15.10;80.30;;;;;;5100026;28;20673;-54
2022/06/25 00:27:42;;;;;;;10.30;2.90;;;15.10;80.60;;;;;;5099964;28;20106;-52
2022/06/25 00:30:09;;;;;;;11.77;2.88;;;15.10;80.40;;;;;;5100128;28;20032;-54
2022/06/25 00:32:35;;;;;;;12.27;2.90;;;15.20;79.30;;;;;;5099775;28;20085;-55
2022/06/25 00:35:02;;;;;;;10.25;2.90;;;15.30;79.00;;;;;;5100097;28;20073;-55
2022/06/25 00:37:28;;;;;;;11.65;3.05;;;15.30;77.90;;;;;;5099848;28;20021;-53
2022/06/25 00:39:54;;;;;;;12.05;2.80;;;15.30;79.90;;;;;;5099925;28;20024;-52
2022/06/25 00:42:20;;;;;;;9.18;2.65;;;15.30;79.00;;;;;;5099831;28;20762;-54
2022/06/25 00:44:46;;;;;;;12.25;3.08;;;15.30;78.90;;;;;;5100102;28;20052;-55
2022/06/25 00:47:14;;;;;;;16.50;3.78;;;15.30;81.90;;;;;;5099558;28;20074;-54
2022/06/25 00:49:41;;;;;;;12.10;3.17;;;15.40;81.30;;;;;;5099321;28;20032;-53
2022/06/25 00:52:17;;;;;;;10.13;3.45;;;15.40;80.40;;;;;;5098022;28;20028;-56
2022/06/25 00:54:49;;;;;;;9.20;2.50;;;15.30;80.50;;;;;;5099705;28;20024;-55
2022/06/25 00:57:21;;;;;;;12.00;3.00;;;15.30;77.40;;;;;;5099309;28;20026;-55
2022/06/25 00:59:50;;;;;;;11.05;3.03;;;15.20;76.60;;;;;;5099503;28;20036;-56
2022/06/25 01:02:16;;;;;;;9.75;2.40;;;15.10;77.10;;;;;;5099293;28;20107;-55
2022/06/25 01:04:42;;;;;;;8.65;2.50;;;15.00;76.30;;;;;;5099411;28;20020;-55
2022/06/25 01:07:08;;;;;;;6.88;2.72;;;14.90;76.10;;;;;;5099520;28;20031;-53
2022/06/25 01:09:36;;;;;;;10.35;3.05;;;14.80;76.20;;;;;;5099285;28;20028;-62
2022/06/25 01:12:03;;;;;;;11.13;2.80;;;14.80;76.70;;;;;;5099078;28;20020;-63
2022/06/25 01:14:29;;;;;;;8.20;2.60;;;14.80;77.30;;;;;;5099132;28;20112;-63
2022/06/25 01:16:55;;;;;;;7.85;3.17;;;14.80;77.00;;;;;;5098985;28;20471;-63
2022/06/25 01:19:21;;;;;;;8.63;3.42;;;14.70;76.70;;;;;;5098841;28;20031;-63
2022/06/25 01:21:47;;;;;;;9.65;2.92;;;14.70;77.70;;;;;;5099271;28;20024;-64
2022/06/25 01:24:13;;;;;;;10.23;2.83;;;14.70;79.20;;;;;;5098665;28;20092;-63
2022/06/25 01:26:40;;;;;;;11.95;3.22;;;14.70;80.40;;;;;;5099025;28;20024;-63
2022/06/25 01:29:08;;;;;;;13.35;3.55;;;14.80;80.40;;;;;;5099086;28;20107;-63
2022/06/25 01:31:35;;;;;;;12.32;3.00;;;14.90;80.40;;;;;;5098705;28;20020;-63
2022/06/25 01:34:02;;;;;;;12.98;2.92;;;14.90;80.70;;;;;;5099093;28;20012;-63
2022/06/25 01:36:28;;;;;;;14.05;3.55;;;14.90;79.60;;;;;;5098694;28;20023;-63
2022/06/25 01:38:54;;;;;;;13.32;3.55;;;14.90;78.80;;;;;;5098624;28;20032;-63
2022/06/25 01:41:20;;;;;;;13.45;3.30;;;14.90;77.70;;;;;;5098624;28;20085;-63
2022/06/25 01:43:46;;;;;;;11.68;3.10;;;14.90;77.70;;;;;;5098808;28;20528;-63
2022/06/25 01:46:13;;;;;;;10.25;3.15;;;14.80;76.70;;;;;;5098633;28;20097;-63
2022/06/25 01:48:39;;;;;;;11.85;3.17;;;14.80;76.60;;;;;;5098705;28;20388;-63
2022/06/25 01:51:05;;;;;;;13.80;3.25;;;14.70;77.30;;;;;;5098704;28;20032;-63
2022/06/25 01:53:31;;;;;;;13.63;2.88;;;14.70;76.90;;;;;;5098361;28;20024;-63
2022/06/25 01:55:57;;;;;;;10.18;3.00;;;14.70;76.20;;;;;;5098213;28;20198;-63
2022/06/25 01:58:23;;;;;;;11.82;3.92;;;14.70;77.30;;;;;;5098148;28;20040;-63
2022/06/25 02:00:49;;;;;;;13.50;3.35;;;14.70;77.60;;;;;;5097621;28;20491;-63
2022/06/25 02:03:15;;;;;;;11.30;3.40;;;14.80;77.60;;;;;;5098339;28;20107;-63
2022/06/25 02:05:57;;;;;;;13.20;3.50;;;14.80;78.00;;;;;;5098124;28;20035;-63
2022/06/25 02:08:27;;;;;;;13.32;3.17;;;14.80;77.70;;;;;;5098345;28;20020;-63
2022/06/25 02:10:54;;;;;;;12.55;3.78;;;14.90;78.30;;;;;;5097995;28;20475;-63
2022/06/25 02:13:21;;;;;;;14.10;3.22;;;14.90;79.20;;;;;;5098321;28;20031;-63
2022/06/25 02:15:47;;;;;;;13.63;3.25;;;14.90;78.40;;;;;;5098153;28;20028;-63
2022/06/25 02:18:12;;;;;;;10.55;2.85;;;15.00;77.00;;;;;;5097924;28;20050;-63
2022/06/25 02:20:39;;;;;;;11.10;3.88;;;15.00;76.70;;;;;;5097878;28;20069;-63
2022/06/25 02:23:06;;;;;;;9.98;3.63;;;15.00;77.00;;;;;;5097615;28;20111;-63
2022/06/25 02:25:32;;;;;;;11.93;3.40;;;15.10;77.40;;;;;;5097813;28;20056;-63
2022/06/25 02:27:58;;;;;;;11.27;4.43;;;15.10;77.50;;;;;;5097772;28;20097;-63
2022/06/25 02:30:24;;;;;;;14.95;3.47;;;15.10;78.20;;;;;;5097717;28;20024;-63
2022/06/25 02:32:49;;;;;;;12.68;3.45;;;15.10;78.30;;;;;;5097578;28;20024;-63
2022/06/25 02:35:15;;;;;;;15.55;3.38;;;15.10;78.50;;;;;;5097646;28;20027;-63
2022/06/25 02:37:41;;;;;;;10.70;3.10;;;15.10;78.70;;;;;;5097643;28;20028;-63
2022/06/25 02:40:07;;;;;;;13.35;3.55;;;15.10;77.20;;;;;;5098021;28;20028;-63
2022/06/25 02:42:37;;;;;;;16.60;4.88;;;15.10;77.40;;;;;;5097862;28;20028;-63
2022/06/25 02:45:04;;;;;;;12.55;4.03;;;15.10;77.80;;;;;;5097748;28;20027;-63
2022/06/25 02:47:30;;;;;;;16.63;3.70;;;15.10;76.70;;;;;;5097948;28;20040;-63
2022/06/25 02:49:55;;;;;;;13.65;3.30;;;15.00;77.40;;;;;;5097437;28;20020;-63
2022/06/25 02:52:21;;;;;;;13.32;3.75;;;15.00;78.30;;;;;;5097715;28;20028;-63
2022/06/25 02:54:47;;;;;;;13.27;4.50;;;15.00;78.70;;;;;;5097833;28;20102;-63
2022/06/25 02:59:57;;;;;;;12.27;3.85;;;15.00;78.50;;;;;;5097522;28;20054;-63
2022/06/25 03:02:23;;;;;;;15.10;3.90;;;15.10;78.80;;;;;;5097241;28;20024;-63
2022/06/25 03:04:49;;;;;;;10.60;4.05;;;15.10;77.10;;;;;;5097528;28;20028;-63
2022/06/25 03:07:15;;;;;;;12.30;3.85;;;15.00;76.30;;;;;;5097519;28;20031;-63
2022/06/25 03:09:40;;;;;;;11.27;3.00;;;15.00;76.30;;;;;;5097731;28;20083;-63
2022/06/25 03:12:07;;;;;;;9.65;3.20;;;15.00;75.50;;;;;;5099300;28;20030;-63
2022/06/25 03:14:33;;;;;;;13.25;3.35;;;15.00;76.30;;;;;;5101428;28;20031;-63
2022/06/25 03:16:59;;;;;;;11.35;3.35;;;15.00;77.20;;;;;;5101558;28;20376;-63
2022/06/25 03:19:25;;;;;;;15.20;4.07;;;15.00;77.60;;;;;;5101751;28;20032;-63
2022/06/25 03:21:51;;;;;;;12.10;3.40;;;15.10;77.90;;;;;;5101663;28;20031;-63
2022/06/25 03:24:17;;;;;;;16.20;3.70;;;15.10;77.70;;;;;;5101208;28;20029;-63
2022/06/25 03:26:43;;;;;;;13.10;3.40;;;15.10;77.70;;;;;;5099931;28;20027;-63
2022/06/25 03:29:09;;;;;;;11.82;3.45;;;15.10;78.40;;;;;;5101319;28;20107;-63
2022/06/25 03:31:35;;;;;;;12.95;3.15;;;15.10;78.10;;;;;;5101433;28;20028;-64
2022/06/25 03:34:01;;;;;;;10.63;3.72;;;15.20;76.30;;;;;;5101079;28;20028;-63
2022/06/25 03:36:26;;;;;;;11.40;3.30;;;15.10;75.50;;;;;;5101143;28;20048;-63
2022/06/25 03:38:52;;;;;;;14.73;4.20;;;15.10;77.20;;;;;;5100952;28;20471;-63
2022/06/25 03:41:35;;;;;;;12.05;3.50;;;15.00;78.10;;;;;;5101378;28;20480;-63
2022/06/25 03:44:03;;;;;;;11.55;3.90;;;15.10;78.30;;;;;;5100619;28;20100;-63
2022/06/25 03:46:29;;;;;;;16.90;3.70;;;15.10;77.70;;;;;;5100762;28;20020;-63
2022/06/25 03:48:55;;;;;;;10.60;3.20;;;15.10;76.30;;;;;;5100884;28;20168;-63
2022/06/25 03:51:21;;;;;;;14.20;3.65;;;15.10;76.40;;;;;;5100453;28;20061;-63
2022/06/25 03:53:47;;;;;;;14.15;4.13;;;15.00;75.40;;;;;;5100324;28;20145;-63
2022/06/25 03:56:13;;;;;;;13.18;4.28;;;15.00;76.70;;;;;;5100460;28;20020;-64
2022/06/25 03:58:39;;;;;;;11.25;3.47;;;15.00;76.00;;;;;;5100324;28;20044;-63
2022/06/25 04:01:05;;;;;;;10.82;3.40;;;15.00;76.80;;;;;;5100756;28;20024;-63
2022/06/25 04:03:31;;;;;;;16.75;4.70;;;15.00;76.70;;;;;;5100936;28;20612;-63
2022/06/25 04:05:58;;;;;;;14.82;3.08;;;15.00;77.20;;;;;;5100417;28;20031;-63
2022/06/25 04:08:24;;;;;;;13.18;3.60;;;15.00;76.00;;;;;;5082063;28;20028;-64
2022/06/25 04:10:50;;;;;;;12.82;4.10;;;15.00;76.50;;;;;;5100560;28;20026;-63
2022/06/25 04:13:15;;;;;;;13.75;4.35;;;15.00;76.30;;;;;;5100429;28;20024;-63
2022/06/25 04:15:41;;;;;;;15.57;3.42;;;15.00;76.80;;;;;;5100272;28;20073;-63
2022/06/25 04:18:08;;;;;;;13.80;3.85;;;15.00;75.10;;;;;;5100343;28;20031;-63
2022/06/25 04:20:34;;;;;;;10.93;3.10;;;15.00;75.80;;;;;;5100156;28;20439;-63
2022/06/25 04:23:00;;;;;;;13.98;3.38;;;15.00;75.60;;;;;;5099633;28;20020;-64
2022/06/25 04:25:26;;;;;;;10.70;3.60;;;15.00;74.80;;;;;;5100313;28;20085;-64
2022/06/25 04:30:37;;;;;;;;;;;15.00;75.50;;;;;;5100681;28;20117;-64
2022/06/25 04:33:02;;;;;;;10.93;3.15;;;15.00;75.40;;;;;;5100060;28;19908;-63
2022/06/25 04:35:28;;;;;;;13.85;4.05;;;15.10;74.90;;;;;;5100379;28;20368;-63
2022/06/25 04:37:54;;;;;;;15.52;4.47;;;15.00;74.60;;;;;;5099875;28;20017;-63
2022/06/25 04:40:20;;;;;;;11.25;3.40;;;15.10;74.10;;;;;;5098314;28;20085;-63
2022/06/25 04:42:46;;;;;;;9.20;3.20;;;15.10;73.30;;;;;;5099762;28;20054;-64
2022/06/25 04:45:12;;;;;;;11.82;3.75;;;15.10;73.00;;;;;;5099947;28;20028;-63
2022/06/25 04:47:38;;;;;;;13.75;3.78;;;15.10;76.30;;;;;;5099590;28;20035;-64
2022/06/25 04:50:07;;;;;;;14.95;3.58;;;15.10;77.20;;;;;;5099853;28;20100;-63
2022/06/25 04:52:33;;;;;;;14.45;3.45;;;15.10;77.30;;;;;;5099757;28;20031;-64
2022/06/25 04:54:59;;;;;;;12.73;3.97;;;15.20;78.70;;;;;;5099613;28;20020;-63
2022/06/25 04:57:25;;;;;;;11.77;3.17;;;15.10;78.80;;;;;;5099305;28;20066;-63
2022/06/25 04:59:50;;;;;;;10.45;3.63;;;15.10;79.30;;;;;;5099253;28;20028;-63
2022/06/25 05:02:16;;;;;;;12.93;3.15;;;15.10;79.40;;;;;;5098088;28;20472;-63
2022/06/25 05:04:42;;;;;;;10.23;3.80;;;15.10;79.10;;;;;;5099623;28;20452;-64
2022/06/25 05:07:08;;;;;;;12.43;3.28;;;14.90;78.80;;;;;;5099361;28;20100;-63
2022/06/25 05:09:34;;;;;;;12.27;3.20;;;14.90;77.80;;;;;;5099278;28;20030;-63
2022/06/25 05:12:00;;;;;;;12.07;3.20;;;14.90;78.20;;;;;;5099256;28;20023;-63
2022/06/25 05:14:25;;;;;;;11.32;2.88;;;14.90;77.80;;;;;;5099228;28;20387;-63
2022/06/25 05:16:53;;;;;;;11.07;3.13;;;14.80;77.90;;;;;;5099299;28;20021;-64
2022/06/25 05:19:19;;;;;;;8.25;3.03;;;14.70;78.40;;;;;;5099241;28;20095;-63
2022/06/25 05:21:45;;;;;;;11.25;3.03;;;14.70;78.90;;;;;;5098910;28;20101;-63
2022/06/25 05:24:10;;;;;;;11.30;3.38;;;14.80;79.40;;;;;;5099054;28;20031;-63
2022/06/25 05:26:36;;;;;;;11.07;3.20;;;14.80;80.80;;;;;;5099031;28;20034;-63
2022/06/25 05:29:02;;;;;;;15.63;3.65;;;14.80;80.80;;;;;;5097581;28;20107;-64
2022/06/25 05:31:28;;;;;;;12.40;3.33;;;14.90;80.60;;;;;;5099030;28;20024;-63
2022/06/25 05:33:54;;;;;;;12.10;3.20;;;14.90;80.20;;;;;;5098746;28;20022;-63
2022/06/25 05:36:19;;;;;;;8.43;2.92;;;14.90;76.00;;;;;;5097677;28;20016;-64
2022/06/25 05:38:45;;;;;;;10.82;3.30;;;14.80;75.40;;;;;;5098532;28;20024;-63
2022/06/25 05:41:11;;;;;;;10.57;3.13;;;14.70;74.10;;;;;;5098367;28;20444;-63
2022/06/25 05:43:38;;;;;;;11.68;3.05;;;14.70;74.60;;;;;;5098677;28;20051;-63
2022/06/25 05:46:05;;;;;;;10.68;3.13;;;14.70;74.70;;;;;;5098929;28;20024;-63
2022/06/25 05:48:31;;;;;;;13.05;4.18;;;14.70;75.80;;;;;;5098472;28;20570;-63
2022/06/25 05:50:57;;;;;;;14.50;3.58;;;14.70;76.10;;;;;;5098692;28;20119;-63
2022/06/25 05:53:24;;;;;;;12.65;3.45;;;14.70;76.70;;;;;;5098271;28;20024;-63
2022/06/25 05:55:49;;;;;;;12.45;3.50;;;14.80;77.60;;;;;;5098513;28;20084;-64
2022/06/25 05:58:15;;;;;;;16.10;3.53;;;14.80;77.80;;;;;;5098247;28;20482;-63
2022/06/25 06:00:41;;;;;;;13.27;4.15;;;14.90;77.60;;;;;;5098224;28;20103;-63
2022/06/25 06:03:07;;;;;;;11.82;3.22;;;14.90;77.80;;;;;;5098389;28;20036;-64
2022/06/25 06:05:33;;;;;;;11.93;3.83;;;14.90;78.60;;;;;;5098445;28;20063;-64
2022/06/25 06:07:58;;;;;;;11.40;3.80;;;15.00;78.40;;;;;;5098408;28;20028;-64
2022/06/25 06:10:24;;;;;;;10.43;3.03;;;15.10;77.40;;;;;;5098104;28;20028;-63
2022/06/25 06:12:50;;;;;;;10.02;3.50;;;15.20;78.00;;;;;;5098017;28;20198;-64
2022/06/25 06:15:16;;;;;;;13.70;3.92;;;15.40;78.50;;;;;;5098251;28;20020;-63
2022/06/25 06:17:42;;;;;;;10.00;3.50;;;15.60;76.90;;;;;;5098330;28;20397;-63
2022/06/25 06:20:08;;;;;;;12.13;3.75;;;15.70;77.20;;;;;;5098157;28;20027;-63
2022/06/25 06:22:35;;;;;;;9.23;3.38;;;15.90;75.30;;;;;;5098003;28;20087;-63
2022/06/25 06:25:01;;;;;;;10.10;3.70;;;15.80;75.90;;;;;;5098059;28;20085;-64
2022/06/25 06:27:26;;;;;;;8.20;3.05;;;15.70;75.00;;;;;;5098033;28;20016;-63
2022/06/25 06:29:52;;;;;;;7.20;2.90;;;15.50;73.40;;;;;;5097943;28;20031;-63
2022/06/25 06:32:18;;;;;;;9.57;3.17;;;15.40;72.10;;;;;;5097942;28;20491;-55
2022/06/25 06:34:44;;;;;;;10.60;3.03;;;15.20;73.80;;;;;;5097675;28;20020;-55
2022/06/25 06:37:10;;;;;;;9.00;3.00;;;15.20;75.70;;;;;;5097704;28;20391;-52
2022/06/25 06:39:36;;;;;;;11.60;3.47;;;15.20;76.20;;;;;;5097760;28;20145;-54
2022/06/25 06:42:02;;;;;;;11.77;3.35;;;15.20;77.30;;;;;;5097415;28;20036;-55
2022/06/25 06:44:27;;;;;;;9.73;3.28;;;15.30;77.60;;;;;;5097571;28;20020;-56
2022/06/25 06:46:53;;;;;;;13.25;3.30;;;15.30;76.90;;;;;;5097360;28;20032;-55
2022/06/25 06:49:19;;;;;;;10.52;3.30;;;15.30;76.80;;;;;;5097760;28;20027;-54
2022/06/25 06:51:45;;;;;;;8.15;3.05;;;15.40;76.30;;;;;;5097406;28;20030;-55
2022/06/25 06:54:12;;;;;;;10.00;3.30;;;15.40;76.90;;;;;;5097945;28;20012;-52
2022/06/25 06:56:37;;;;;;;6.95;2.42;;;15.50;76.30;;;;;;5097551;28;20042;-55
2022/06/25 06:59:03;;;;;;;7.85;2.35;;;15.50;74.00;;;;;;5097188;28;20040;-55
2022/06/25 07:01:29;;;;;;;7.57;2.42;;;15.50;71.80;;;;;;5097571;28;20052;-52
2022/06/25 07:03:55;;;;;;;7.28;2.40;;;15.50;69.00;;;;;;5097357;28;20024;-55
2022/06/25 07:06:21;;;;;;;7.03;2.53;;;15.50;71.10;;;;;;5097335;28;20027;-55
2022/06/25 07:08:47;;;;;;;9.55;2.42;;;15.60;72.80;;;;;;5097463;28;20024;-53
2022/06/25 07:11:34;;;;;;;9.00;2.78;;;15.70;71.10;;;;;;5097289;28;20036;-55
2022/06/25 07:14:01;;;;;;;7.75;2.92;;;15.90;71.50;;;;;;5096905;28;20040;-56
2022/06/25 07:16:28;;;;;;;9.13;3.13;;;16.00;70.60;;;;;;5097423;28;20023;-55
2022/06/25 07:18:56;;;;;;;8.35;2.80;;;16.10;70.60;;;;;;5097390;28;20484;-55
2022/06/25 07:21:22;;;;;;;5.20;2.92;;;16.10;69.90;;;;;;5097377;28;20035;-55
2022/06/25 07:23:48;;;;;;;6.95;2.65;;;16.10;70.80;;;;;;5097612;28;20375;-55
2022/06/25 07:26:14;;;;;;;9.73;2.53;;;16.10;70.40;;;;;;5097100;28;20040;-54
2022/06/25 07:28:40;;;;;;;13.77;3.40;;;16.10;71.80;;;;;;5097211;28;20020;-56
2022/06/25 07:31:06;;;;;;;7.85;2.42;;;16.10;72.70;;;;;;5097042;28;20020;-53
2022/06/25 07:33:32;;;;;;;9.25;2.90;;;16.10;71.60;;;;;;5097183;28;20104;-56
2022/06/25 07:35:58;;;;;;;7.82;2.92;;;16.20;72.10;;;;;;5097192;28;20054;-56
2022/06/25 07:38:24;;;;;;;8.40;2.70;;;16.30;71.50;;;;;;5097017;28;20027;-54
2022/06/25 07:40:50;;;;;;;11.63;2.78;;;16.30;70.40;;;;;;5097025;28;20020;-54
2022/06/25 07:43:16;;;;;;;8.45;3.03;;;16.30;71.60;;;;;;5097358;28;20568;-54
2022/06/25 07:45:42;;;;;;;12.63;2.85;;;16.40;71.50;;;;;;5097180;28;20024;-54
2022/06/25 07:48:09;;;;;;;9.48;2.92;;;16.40;72.40;;;;;;5096961;28;20547;-56
2022/06/25 07:53:19;;;;;;;7.43;2.75;;;16.50;70.90;;;;;;5096884;28;20031;-55
2022/06/25 07:55:44;;;;;;;7.85;2.60;;;16.60;71.70;;;;;;5097315;28;20441;-55
2022/06/25 07:58:11;;;;;;;9.70;2.78;;;16.60;70.00;;;;;;5097105;28;20095;-56
2022/06/25 08:00:36;;;;;;;7.95;2.60;;;16.60;70.40;;;;;;5100513;28;20107;-55
2022/06/25 08:03:03;;;;;;;8.30;2.60;;;16.60;69.70;;;;;;5099854;28;20043;-55
2022/06/25 08:05:29;;;;;;;7.80;2.17;;;16.50;69.00;;;;;;5100385;28;20058;-55
2022/06/25 08:07:55;;;;;;;9.02;2.50;;;16.50;69.00;;;;;;5100316;28;20035;-56
2022/06/25 08:10:21;;;;;;;12.13;3.08;;;16.60;71.80;;;;;;5100284;28;20400;-54
2022/06/25 08:12:48;;;;;;;9.90;2.70;;;16.70;70.70;;;;;;5100267;28;20028;-57
2022/06/25 08:15:19;;;;;;;9.57;2.58;;;16.80;69.50;;;;;;5100288;28;20016;-53
2022/06/25 08:17:45;;;;;;;11.25;3.15;;;16.90;70.10;;;;;;5100221;28;20016;-54
2022/06/25 08:20:11;;;;;;;7.15;2.42;;;17.00;68.40;;;;;;5100075;28;20020;-53
2022/06/25 08:22:37;;;;;;;8.60;2.63;;;17.10;69.70;;;;;;5100105;28;20104;-56
2022/06/25 08:25:04;;;;;;;6.82;2.25;;;17.20;69.50;;;;;;5099224;28;20028;-56
2022/06/25 08:27:31;;;;;;;6.40;2.50;;;17.20;68.40;;;;;;5100112;28;20020;-52
2022/06/25 08:29:58;;;;;;;7.03;2.42;;;17.20;67.70;;;;;;5100081;28;20028;-55
2022/06/25 08:32:23;;;;;;;13.98;2.70;;;17.10;69.00;;;;;;5099797;28;20468;-54
2022/06/25 08:34:49;;;;;;;16.55;3.38;;;16.90;73.00;;;;;;5100043;28;20073;-54
2022/06/25 08:37:15;;;;;;;15.48;3.50;;;16.60;78.20;;;;;;5100020;28;20131;-53
2022/06/25 08:39:41;;;;;;;11.98;3.50;;;16.30;77.30;;;;;;5098647;28;20105;-55
2022/06/25 08:42:07;;;;;;;11.25;3.38;;;16.20;80.10;;;;;;5099822;28;20095;-55
2022/06/25 08:44:33;;;;;;;15.30;3.33;;;16.00;81.30;;;;;;5100028;28;20028;-55
2022/06/25 08:46:59;;;;;;;10.88;3.28;;;16.00;81.20;;;;;;5100076;28;20093;-52
2022/06/25 08:49:26;;;;;;;9.90;2.97;;;16.20;82.10;;;;;;5099457;28;20438;-54
2022/06/25 08:51:57;;;;;;;10.82;2.63;;;16.20;83.00;;;;;;5099231;28;20112;-54
2022/06/25 08:54:24;;;;;;;13.27;3.42;;;16.30;84.50;;;;;;5099580;28;20043;-54
2022/06/25 08:56:50;;;;;;;14.07;3.15;;;16.30;84.20;;;;;;5099522;28;20042;-56
2022/06/25 08:59:16;;;;;;;11.70;3.50;;;16.40;82.30;;;;;;5098954;28;20040;-52
2022/06/25 09:01:43;;;;;;;10.68;2.58;;;16.40;81.20;;;;;;5099347;28;20021;-52
2022/06/25 09:04:09;;;;;;;10.63;3.00;;;16.50;83.10;;;;;;5099180;28;20020;-54
2022/06/25 09:06:35;;;;;;;7.88;2.67;;;16.50;82.10;;;;;;5099445;28;20028;-53
2022/06/25 09:09:12;;;;;;;9.55;3.00;;;16.50;80.70;;;;;;5098954;28;20049;-55
2022/06/25 09:12:05;;;;;;;10.25;2.72;;;16.50;77.70;;;;;;5099207;28;20077;-54
2022/06/25 09:14:32;;;;;;;5.40;2.30;;;16.50;78.50;;;;;;5098818;28;20071;-54
2022/06/25 09:17:05;;;;;;;10.43;2.60;;;16.50;77.20;;;;;;5099086;28;20133;-53
2022/06/25 09:19:36;;;;;;;7.32;2.63;;;16.50;76.30;;;;;;5098881;28;20028;-55
2022/06/25 09:22:10;;;;;;;6.63;1.98;;;16.60;76.80;;;;;;5099096;28;20055;-53
2022/06/25 09:24:45;;;;;;;7.70;2.22;;;16.60;75.30;;;;;;5098882;28;20024;-55
2022/06/25 09:27:12;;;;;;;5.03;2.20;;;16.70;75.50;;;;;;5098551;28;20074;-56
2022/06/25 09:29:44;;;;;;;5.57;1.85;;;16.70;74.80;;;;;;5098693;28;20020;-53
2022/06/25 09:32:11;;;;;;;8.07;2.17;;;16.80;75.10;;;;;;5098778;28;20107;-54
2022/06/25 09:34:38;;;;;;;6.22;2.42;;;17.00;73.80;;;;;;5098629;28;20388;-51
2022/06/25 09:37:17;;;;;;;5.60;1.95;;;17.20;75.80;;;;;;5098594;28;20479;-56
2022/06/25 09:39:45;;;;;;;11.85;2.60;;;17.30;73.90;;;;;;5098753;28;20052;-55
2022/06/25 09:42:24;;;;;;;6.72;2.25;;;17.40;72.70;;;;;;5098261;28;20495;-54
2022/06/25 09:45:09;;;;;;;9.70;2.47;;;17.50;72.50;;;;;;5098194;28;20458;-55
2022/06/25 09:47:40;;;;;;;8.43;2.58;;;17.70;71.90;;;;;;5097894;28;20024;-54
2022/06/25 09:50:19;;;;;;;6.57;2.38;;;17.80;71.80;;;;;;5098758;28;20031;-55
2022/06/25 09:52:52;;;;;;;8.65;2.90;;;17.80;69.80;;;;;;5098635;28;20024;-56
2022/06/25 09:55:19;;;;;;;9.25;2.22;;;17.90;73.20;;;;;;5098535;28;20031;-54
2022/06/25 09:57:45;;;;;;;8.23;2.70;;;18.10;70.90;;;;;;5098320;28;20094;-55
2022/06/25 10:00:11;;;;;;;8.68;2.13;;;18.20;72.40;;;;;;5098257;28;20503;-55
2022/06/25 10:02:37;;;;;;;8.02;2.50;;;18.50;69.80;;;;;;5096837;28;20024;-55
2022/06/25 10:05:04;;;;;;;5.05;2.53;;;18.60;67.10;;;;;;5096990;28;20549;-55
2022/06/25 10:10:22;;;;;;;9.02;2.70;;;18.80;66.20;;;;;;5098353;28;20457;-57
2022/06/25 10:12:49;;;;;;;7.47;2.55;;;18.90;65.40;;;;;;5098351;28;20039;-55
2022/06/25 10:15:20;;;;;;;8.15;2.38;;;18.90;68.60;;;;;;5098056;28;20055;-54
2022/06/25 10:17:47;;;;;;;8.43;2.00;;;19.30;66.00;;;;;;5098348;28;20024;-56
2022/06/25 10:20:15;;;;;;;8.98;2.53;;;19.40;65.80;;;;;;5097748;28;20395;-57
2022/06/25 10:22:43;;;;;;;7.25;2.58;;;19.70;66.90;;;;;;5097193;28;20032;-54
2022/06/25 10:25:12;;;;;;;8.15;2.05;;;19.90;65.00;;;;;;5098004;28;20035;-57
2022/06/25 10:27:42;;;;;;;10.82;2.20;;;20.00;61.30;;;;;;5098049;28;20031;-55
2022/06/25 10:30:09;;;;;;;9.20;1.77;;;20.20;63.60;;;;;;5097793;28;20052;-54
2022/06/25 10:32:55;;;;;;;7.65;2.13;;;20.50;61.40;;;;;;5097834;28;20902;-57
2022/06/25 10:35:34;;;;;;;5.43;1.70;;;20.70;60.20;;;;;;5097753;28;20084;-55
2022/06/25 10:38:13;;;;;;;6.95;1.67;;;20.80;60.60;;;;;;5097787;28;20024;-55
2022/06/25 10:40:58;;;;;;;4.68;1.30;;;21.00;60.00;;;;;;5097841;28;20518;-55
2022/06/25 10:43:53;;;;;;;4.65;1.48;;;21.10;52.60;;;;;;5097730;28;20028;-54
2022/06/25 10:46:21;;;;;;;6.93;1.77;;;21.30;54.20;;;;;;5097669;28;20027;-57
2022/06/25 10:49:10;;;;;;;5.20;1.40;;;21.50;55.50;;;;;;5097396;28;20073;-56
2022/06/25 10:51:38;;;;;;;5.38;1.42;;;21.80;56.60;;;;;;5097701;28;20028;-55
2022/06/25 10:54:07;;;;;;;7.47;1.98;;;21.90;57.70;;;;;;5097372;28;20020;-56
2022/06/25 10:56:45;;;;;;;5.30;1.58;;;22.00;54.00;;;;;;5097363;28;20059;-55
2022/06/25 10:59:37;;;;;;;6.60;1.52;;;22.00;55.10;;;;;;5097809;28;20044;-56
2022/06/25 11:02:11;;;;;;;8.10;1.98;;;21.90;53.80;;;;;;5097365;28;20025;-56
2022/06/25 11:04:46;;;;;;;6.75;2.00;;;21.60;52.00;;;;;;5097380;28;20020;-56
2022/06/25 11:07:14;;;;;;;6.47;1.80;;;21.60;54.00;;;;;;5097416;28;20383;-58
2022/06/25 11:09:50;;;;;;;7.32;1.60;;;21.80;53.00;;;;;;5097285;28;20031;-54
2022/06/25 11:12:17;;;;;;;5.53;1.67;;;21.90;53.40;;;;;;5097689;28;20080;-57
2022/06/25 11:14:48;;;;;;;6.38;2.10;;;22.00;54.30;;;;;;5095927;28;20109;-57
2022/06/25 11:17:14;;;;;;;5.30;1.50;;;22.30;54.70;;;;;;5095890;28;20376;-56
2022/06/25 11:19:42;;;;;;;6.20;1.80;;;22.60;56.20;;;;;;5097557;28;20024;-57
2022/06/25 11:22:08;;;;;;;7.43;1.60;;;23.00;54.70;;;;;;5097353;28;20036;-56
2022/06/25 11:24:34;;;;;;;6.10;2.22;;;23.00;53.90;;;;;;5097462;28;20020;-56
2022/06/25 11:29:51;;;;;;;8.02;2.45;;;22.40;55.80;;;;;;5097186;28;20090;-55
2022/06/25 11:32:25;;;;;;;6.35;2.20;;;21.10;57.00;;;;;;5096522;28;20025;-56
2022/06/25 11:34:57;;;;;;;7.93;2.45;;;20.60;63.20;;;;;;5100243;28;20052;-58
2022/06/25 11:37:23;;;;;;;10.57;2.45;;;20.70;64.00;;;;;;5100755;28;20016;-55
2022/06/25 11:39:49;;;;;;;7.00;1.70;;;20.90;65.00;;;;;;5100860;28;20073;-57
2022/06/25 11:42:16;;;;;;;8.02;2.78;;;21.30;60.10;;;;;;5101177;28;20024;-56
2022/06/25 11:44:44;;;;;;;4.60;1.50;;;21.70;61.50;;;;;;5101060;28;20032;-58
2022/06/25 11:47:12;;;;;;;8.30;1.88;;;22.10;60.10;;;;;;5100809;28;20581;-57
2022/06/25 11:49:40;;;;;;;9.10;2.30;;;22.50;61.20;;;;;;5100729;28;20038;-57
2022/06/25 11:52:07;;;;;;;9.00;2.40;;;23.00;57.20;;;;;;5101218;28;20071;-56
2022/06/25 11:54:36;;;;;;;5.72;1.80;;;23.10;57.80;;;;;;5100934;28;20035;-58
2022/06/25 11:57:04;;;;;;;6.95;1.85;;;23.20;52.10;;;;;;5100924;28;20069;-56
2022/06/25 11:59:33;;;;;;;6.43;1.80;;;23.50;52.20;;;;;;5100420;28;20055;-57
2022/06/25 12:01:59;;;;;;;7.28;1.88;;;23.80;53.90;;;;;;5100572;28;20020;-58
2022/06/25 12:04:26;;;;;;;7.03;1.58;;;23.90;51.30;;;;;;5100735;28;20028;-58
2022/06/25 12:06:52;;;;;;;6.70;1.67;;;24.20;50.60;;;;;;5100684;28;20024;-57
2022/06/25 12:09:20;;;;;;;4.28;1.48;;;24.30;50.00;;;;;;5100363;28;20035;-57
2022/06/25 12:11:53;;;;;;;6.25;2.00;;;24.30;47.60;;;;;;5100651;28;20020;-58
2022/06/25 12:14:32;;;;;;;6.80;1.53;;;24.10;48.50;;;;;;5100128;28;20073;-57
2022/06/25 12:16:59;;;;;;;7.22;1.80;;;24.10;49.20;;;;;;5100356;28;20265;-57
2022/06/25 12:19:48;;;;;;;6.45;1.90;;;24.00;50.90;;;;;;5100004;28;20461;-55
2022/06/25 12:22:21;;;;;;;6.18;1.77;;;23.60;47.00;;;;;;5100259;28;20122;-58
2022/06/25 12:24:48;;;;;;;3.88;1.33;;;23.50;47.30;;;;;;5100097;28;20085;-57
2022/06/25 12:27:14;;;;;;;6.13;1.70;;;23.60;49.90;;;;;;5100033;28;20111;-58
2022/06/25 12:29:40;;;;;;;6.05;1.50;;;23.80;48.70;;;;;;5100023;28;20055;-58
2022/06/25 12:32:06;;;;;;;4.13;1.42;;;23.90;47.60;;;;;;5099775;28;20047;-56
2022/06/25 12:34:31;;;;;;;4.47;1.50;;;24.00;48.50;;;;;;5099823;28;20103;-58
2022/06/25 12:36:59;;;;;;;4.05;1.40;;;24.10;45.90;;;;;;5099420;28;20023;-58
2022/06/25 12:39:32;;;;;;;4.18;1.30;;;24.10;45.90;;;;;;5099855;28;20024;-57
2022/06/25 12:42:13;;;;;;;3.97;1.10;;;24.20;44.80;;;;;;5099912;28;20479;-56
2022/06/25 12:44:46;;;;;;;3.85;1.25;;;24.20;47.20;;;;;;5099497;28;20076;-56
2022/06/25 12:47:16;;;;;;;4.90;1.20;;;24.20;46.10;;;;;;5099993;28;20027;-56
2022/06/25 12:49:47;;;;;;;4.93;1.33;;;23.90;47.60;;;;;;5099553;28;20399;-56
2022/06/25 12:52:16;;;;;;;4.88;1.30;;;23.70;46.40;;;;;;5099455;28;20024;-57
2022/06/25 12:54:48;;;;;;;6.07;1.77;;;23.60;46.00;;;;;;5099661;28;20024;-58
2022/06/25 12:57:28;;;;;;;3.58;1.20;;;24.00;46.10;;;;;;5097863;28;20104;-57